sensor_id;sensor_type;location;lat;lon;timestamp;P1;durP1;ratioP1;P2;durP2;ratioP2
13611;SDS011;6877;51.436;6.774;2023-07-08T00:00:53;7.38;;;3.42;;
13611;SDS011;6877;51.436;6.774;2023-07-08T00:03:25;5.05;;;4.05;;
13611;SDS011;6877;51.436;6.774;2023-07-08T00:05:53;6.55;;;3.47;;
13611;SDS011;6877;51.436;6.774;2023-07-08T00:08:21;5.75;;;4.20;;
13611;SDS011;6877;51.436;6.774;2023-07-08T00:10:53;4.55;;;3.28;;
13611;SDS011;6877;51.436;6.774;2023-07-08T00:13:20;6.45;;;4.15;;
13611;SDS011;6877;51.436;6.774;2023-07-08T00:15:46;7.13;;;3.33;;
13611;SDS011;6877;51.436;6.774;2023-07-08T00:18:13;7.28;;;3.53;;
13611;SDS011;6877;51.436;6.774;2023-07-08T00:20:45;5.15;;;3.63;;
13611;SDS011;6877;51.436;6.774;2023-07-08T00:23:14;4.68;;;3.50;;
13611;SDS011;6877;51.436;6.774;2023-07-08T00:25:45;5.90;;;3.78;;
13611;SDS011;6877;51.436;6.774;2023-07-08T00:28:18;4.55;;;3.13;;
13611;SDS011;6877;51.436;6.774;2023-07-08T00:30:46;17.25;;;3.28;;
13611;SDS011;6877;51.436;6.774;2023-07-08T00:33:13;3.05;;;2.75;;
13611;SDS011;6877;51.436;6.774;2023-07-08T00:35:40;8.10;;;3.22;;
13611;SDS011;6877;51.436;6.774;2023-07-08T00:40:50;5.82;;;3.22;;
13611;SDS011;6877;51.436;6.774;2023-07-08T00:43:43;4.53;;;2.95;;
13611;SDS011;6877;51.436;6.774;2023-07-08T00:51:34;6.30;;;3.63;;
13611;SDS011;6877;51.436;6.774;2023-07-08T00:54:12;4.13;;;3.20;;
13611;SDS011;6877;51.436;6.774;2023-07-08T01:02:04;4.63;;;3.20;;
13611;SDS011;6877;51.436;6.774;2023-07-08T01:04:37;3.65;;;3.03;;
13611;SDS011;6877;51.436;6.774;2023-07-08T01:07:10;7.00;;;3.47;;
13611;SDS011;6877;51.436;6.774;2023-07-08T01:09:44;4.55;;;2.95;;
13611;SDS011;6877;51.436;6.774;2023-07-08T01:12:15;3.90;;;2.83;;
13611;SDS011;6877;51.436;6.774;2023-07-08T01:14:50;4.85;;;3.13;;
13611;SDS011;6877;51.436;6.774;2023-07-08T01:17:22;8.05;;;3.50;;
13611;SDS011;6877;51.436;6.774;2023-07-08T01:19:54;5.00;;;3.70;;
13611;SDS011;6877;51.436;6.774;2023-07-08T01:22:26;4.05;;;3.15;;
13611;SDS011;6877;51.436;6.774;2023-07-08T01:24:58;6.28;;;3.45;;
13611;SDS011;6877;51.436;6.774;2023-07-08T01:27:35;3.58;;;2.90;;
13611;SDS011;6877;51.436;6.774;2023-07-08T01:30:09;5.55;;;3.17;;
13611;SDS011;6877;51.436;6.774;2023-07-08T01:32:37;5.57;;;3.83;;
13611;SDS011;6877;51.436;6.774;2023-07-08T01:35:16;4.28;;;3.10;;
13611;SDS011;6877;51.436;6.774;2023-07-08T01:37:50;6.95;;;2.60;;
13611;SDS011;6877;51.436;6.774;2023-07-08T01:40:24;5.88;;;3.80;;
13611;SDS011;6877;51.436;6.774;2023-07-08T01:42:53;7.40;;;3.00;;
13611;SDS011;6877;51.436;6.774;2023-07-08T01:45:21;8.15;;;3.15;;
13611;SDS011;6877;51.436;6.774;2023-07-08T01:47:58;8.35;;;4.63;;
13611;SDS011;6877;51.436;6.774;2023-07-08T01:50:29;4.72;;;3.28;;
13611;SDS011;6877;51.436;6.774;2023-07-08T01:53:05;5.22;;;3.40;;
13611;SDS011;6877;51.436;6.774;2023-07-08T01:55:36;4.38;;;3.15;;
13611;SDS011;6877;51.436;6.774;2023-07-08T01:58:03;6.78;;;3.53;;
13611;SDS011;6877;51.436;6.774;2023-07-08T02:00:29;4.15;;;2.75;;
13611;SDS011;6877;51.436;6.774;2023-07-08T02:02:56;5.15;;;3.50;;
13611;SDS011;6877;51.436;6.774;2023-07-08T02:05:23;3.70;;;2.90;;
13611;SDS011;6877;51.436;6.774;2023-07-08T02:07:50;7.13;;;3.63;;
13611;SDS011;6877;51.436;6.774;2023-07-08T02:10:16;7.15;;;3.42;;
13611;SDS011;6877;51.436;6.774;2023-07-08T02:12:48;3.97;;;2.78;;
13611;SDS011;6877;51.436;6.774;2023-07-08T02:15:14;6.22;;;2.58;;
13611;SDS011;6877;51.436;6.774;2023-07-08T02:17:46;3.45;;;2.65;;
13611;SDS011;6877;51.436;6.774;2023-07-08T02:20:17;3.97;;;3.20;;
13611;SDS011;6877;51.436;6.774;2023-07-08T02:22:48;5.00;;;2.90;;
13611;SDS011;6877;51.436;6.774;2023-07-08T02:25:15;3.97;;;3.22;;
13611;SDS011;6877;51.436;6.774;2023-07-08T02:27:42;3.65;;;3.00;;
13611;SDS011;6877;51.436;6.774;2023-07-08T02:30:09;4.15;;;3.25;;
13611;SDS011;6877;51.436;6.774;2023-07-08T02:32:35;4.55;;;2.60;;
13611;SDS011;6877;51.436;6.774;2023-07-08T02:35:09;4.60;;;3.40;;
13611;SDS011;6877;51.436;6.774;2023-07-08T02:37:41;2.92;;;2.38;;
13611;SDS011;6877;51.436;6.774;2023-07-08T02:40:12;5.68;;;3.30;;
13611;SDS011;6877;51.436;6.774;2023-07-08T02:42:45;6.13;;;2.67;;
13611;SDS011;6877;51.436;6.774;2023-07-08T02:45:16;7.38;;;2.85;;
13611;SDS011;6877;51.436;6.774;2023-07-08T02:47:48;5.53;;;2.70;;
13611;SDS011;6877;51.436;6.774;2023-07-08T02:50:15;3.08;;;2.53;;
13611;SDS011;6877;51.436;6.774;2023-07-08T02:53:02;7.00;;;2.67;;
13611;SDS011;6877;51.436;6.774;2023-07-08T02:55:34;6.70;;;3.15;;
13611;SDS011;6877;51.436;6.774;2023-07-08T02:58:05;3.97;;;3.08;;
13611;SDS011;6877;51.436;6.774;2023-07-08T03:00:36;4.90;;;3.55;;
13611;SDS011;6877;51.436;6.774;2023-07-08T03:03:03;6.10;;;3.35;;
13611;SDS011;6877;51.436;6.774;2023-07-08T03:05:30;6.00;;;3.38;;
13611;SDS011;6877;51.436;6.774;2023-07-08T03:08:02;6.22;;;3.63;;
13611;SDS011;6877;51.436;6.774;2023-07-08T03:10:33;4.55;;;2.90;;
13611;SDS011;6877;51.436;6.774;2023-07-08T03:13:00;8.20;;;3.40;;
13611;SDS011;6877;51.436;6.774;2023-07-08T03:15:31;5.85;;;2.92;;
13611;SDS011;6877;51.436;6.774;2023-07-08T03:17:57;5.07;;;3.42;;
13611;SDS011;6877;51.436;6.774;2023-07-08T03:20:26;4.05;;;2.83;;
13611;SDS011;6877;51.436;6.774;2023-07-08T03:22:52;6.47;;;2.90;;
13611;SDS011;6877;51.436;6.774;2023-07-08T03:25:19;6.47;;;3.15;;
13611;SDS011;6877;51.436;6.774;2023-07-08T03:27:50;7.90;;;3.30;;
13611;SDS011;6877;51.436;6.774;2023-07-08T03:30:17;4.93;;;3.60;;
13611;SDS011;6877;51.436;6.774;2023-07-08T03:32:44;6.88;;;3.40;;
13611;SDS011;6877;51.436;6.774;2023-07-08T03:35:15;6.40;;;4.00;;
13611;SDS011;6877;51.436;6.774;2023-07-08T03:37:46;6.45;;;3.60;;
13611;SDS011;6877;51.436;6.774;2023-07-08T03:40:13;6.53;;;2.88;;
13611;SDS011;6877;51.436;6.774;2023-07-08T03:42:40;6.38;;;3.72;;
13611;SDS011;6877;51.436;6.774;2023-07-08T03:45:11;4.55;;;2.97;;
13611;SDS011;6877;51.436;6.774;2023-07-08T03:47:37;4.70;;;3.35;;
13611;SDS011;6877;51.436;6.774;2023-07-08T03:50:04;4.47;;;3.40;;
13611;SDS011;6877;51.436;6.774;2023-07-08T03:52:36;5.93;;;3.45;;
13611;SDS011;6877;51.436;6.774;2023-07-08T03:55:08;10.07;;;3.08;;
13611;SDS011;6877;51.436;6.774;2023-07-08T03:57:37;4.70;;;3.17;;
13611;SDS011;6877;51.436;6.774;2023-07-08T04:00:03;3.15;;;2.83;;
13611;SDS011;6877;51.436;6.774;2023-07-08T04:02:30;4.78;;;3.20;;
13611;SDS011;6877;51.436;6.774;2023-07-08T04:05:02;3.47;;;2.72;;
13611;SDS011;6877;51.436;6.774;2023-07-08T04:07:29;4.15;;;3.13;;
13611;SDS011;6877;51.436;6.774;2023-07-08T04:10:00;7.05;;;3.13;;
13611;SDS011;6877;51.436;6.774;2023-07-08T04:12:27;5.55;;;3.28;;
13611;SDS011;6877;51.436;6.774;2023-07-08T04:14:53;4.32;;;3.88;;
13611;SDS011;6877;51.436;6.774;2023-07-08T04:17:20;5.22;;;3.17;;
13611;SDS011;6877;51.436;6.774;2023-07-08T04:19:54;4.65;;;2.97;;
13611;SDS011;6877;51.436;6.774;2023-07-08T04:22:22;4.03;;;2.88;;
13611;SDS011;6877;51.436;6.774;2023-07-08T04:24:50;5.00;;;3.70;;
13611;SDS011;6877;51.436;6.774;2023-07-08T04:27:21;7.05;;;3.50;;
13611;SDS011;6877;51.436;6.774;2023-07-08T04:29:53;4.85;;;3.42;;
13611;SDS011;6877;51.436;6.774;2023-07-08T04:32:24;4.70;;;3.25;;
13611;SDS011;6877;51.436;6.774;2023-07-08T04:34:56;5.78;;;3.80;;
13611;SDS011;6877;51.436;6.774;2023-07-08T04:37:22;5.82;;;3.65;;
13611;SDS011;6877;51.436;6.774;2023-07-08T04:39:49;6.95;;;3.80;;
13611;SDS011;6877;51.436;6.774;2023-07-08T04:42:15;4.25;;;3.20;;
13611;SDS011;6877;51.436;6.774;2023-07-08T04:44:48;5.13;;;3.67;;
13611;SDS011;6877;51.436;6.774;2023-07-08T04:47:20;5.10;;;3.55;;
13611;SDS011;6877;51.436;6.774;2023-07-08T04:49:52;5.43;;;3.45;;
13611;SDS011;6877;51.436;6.774;2023-07-08T04:52:24;6.10;;;3.20;;
13611;SDS011;6877;51.436;6.774;2023-07-08T04:54:50;7.70;;;3.50;;
13611;SDS011;6877;51.436;6.774;2023-07-08T04:57:22;10.27;;;3.55;;
13611;SDS011;6877;51.436;6.774;2023-07-08T04:59:48;7.07;;;3.83;;
13611;SDS011;6877;51.436;6.774;2023-07-08T05:02:19;4.30;;;3.10;;
13611;SDS011;6877;51.436;6.774;2023-07-08T05:04:46;6.35;;;3.15;;
13611;SDS011;6877;51.436;6.774;2023-07-08T05:07:12;6.22;;;3.40;;
13611;SDS011;6877;51.436;6.774;2023-07-08T05:09:43;5.22;;;3.30;;
13611;SDS011;6877;51.436;6.774;2023-07-08T05:12:15;5.70;;;3.28;;
13611;SDS011;6877;51.436;6.774;2023-07-08T05:14:46;5.25;;;3.60;;
13611;SDS011;6877;51.436;6.774;2023-07-08T05:17:18;7.05;;;3.42;;
13611;SDS011;6877;51.436;6.774;2023-07-08T05:19:44;7.13;;;3.65;;
13611;SDS011;6877;51.436;6.774;2023-07-08T05:22:12;4.20;;;3.05;;
13611;SDS011;6877;51.436;6.774;2023-07-08T05:24:38;3.58;;;3.05;;
13611;SDS011;6877;51.436;6.774;2023-07-08T05:27:05;7.47;;;3.90;;
13611;SDS011;6877;51.436;6.774;2023-07-08T05:29:31;6.53;;;2.80;;
13611;SDS011;6877;51.436;6.774;2023-07-08T05:31:58;7.85;;;3.72;;
13611;SDS011;6877;51.436;6.774;2023-07-08T05:34:24;4.03;;;3.40;;
13611;SDS011;6877;51.436;6.774;2023-07-08T05:36:50;5.30;;;3.58;;
13611;SDS011;6877;51.436;6.774;2023-07-08T05:39:17;12.75;;;4.00;;
13611;SDS011;6877;51.436;6.774;2023-07-08T05:41:43;5.53;;;3.70;;
13611;SDS011;6877;51.436;6.774;2023-07-08T05:44:10;5.78;;;3.55;;
13611;SDS011;6877;51.436;6.774;2023-07-08T05:46:36;6.78;;;3.53;;
13611;SDS011;6877;51.436;6.774;2023-07-08T05:49:03;4.32;;;3.33;;
13611;SDS011;6877;51.436;6.774;2023-07-08T05:51:29;6.38;;;3.95;;
13611;SDS011;6877;51.436;6.774;2023-07-08T05:54:00;5.22;;;3.88;;
13611;SDS011;6877;51.436;6.774;2023-07-08T05:56:32;11.18;;;3.50;;
13611;SDS011;6877;51.436;6.774;2023-07-08T05:59:03;5.15;;;3.90;;
13611;SDS011;6877;51.436;6.774;2023-07-08T06:01:30;7.03;;;4.35;;
13611;SDS011;6877;51.436;6.774;2023-07-08T06:03:57;8.27;;;3.70;;
13611;SDS011;6877;51.436;6.774;2023-07-08T06:06:26;6.90;;;4.22;;
13611;SDS011;6877;51.436;6.774;2023-07-08T06:08:53;8.35;;;4.13;;
13611;SDS011;6877;51.436;6.774;2023-07-08T06:11:24;5.13;;;3.17;;
13611;SDS011;6877;51.436;6.774;2023-07-08T06:13:51;7.40;;;3.75;;
13611;SDS011;6877;51.436;6.774;2023-07-08T06:16:17;5.50;;;3.53;;
13611;SDS011;6877;51.436;6.774;2023-07-08T06:18:44;4.63;;;3.67;;
13611;SDS011;6877;51.436;6.774;2023-07-08T06:21:10;5.97;;;3.78;;
13611;SDS011;6877;51.436;6.774;2023-07-08T06:23:41;5.80;;;3.83;;
13611;SDS011;6877;51.436;6.774;2023-07-08T06:26:08;5.82;;;3.80;;
13611;SDS011;6877;51.436;6.774;2023-07-08T06:28:34;5.18;;;3.80;;
13611;SDS011;6877;51.436;6.774;2023-07-08T06:31:06;7.30;;;4.13;;
13611;SDS011;6877;51.436;6.774;2023-07-08T06:33:32;9.07;;;3.83;;
13611;SDS011;6877;51.436;6.774;2023-07-08T06:35:59;5.07;;;3.25;;
13611;SDS011;6877;51.436;6.774;2023-07-08T06:38:25;7.30;;;4.22;;
13611;SDS011;6877;51.436;6.774;2023-07-08T06:40:52;5.68;;;3.50;;
13611;SDS011;6877;51.436;6.774;2023-07-08T06:43:23;5.75;;;3.42;;
13611;SDS011;6877;51.436;6.774;2023-07-08T06:45:54;4.28;;;3.17;;
13611;SDS011;6877;51.436;6.774;2023-07-08T06:48:26;7.68;;;4.05;;
13611;SDS011;6877;51.436;6.774;2023-07-08T06:50:52;6.93;;;4.28;;
13611;SDS011;6877;51.436;6.774;2023-07-08T06:53:19;10.43;;;4.63;;
13611;SDS011;6877;51.436;6.774;2023-07-08T06:55:46;9.80;;;4.78;;
13611;SDS011;6877;51.436;6.774;2023-07-08T06:58:12;6.07;;;3.97;;
13611;SDS011;6877;51.436;6.774;2023-07-08T07:00:42;6.47;;;3.53;;
13611;SDS011;6877;51.436;6.774;2023-07-08T07:03:15;11.65;;;4.72;;
13611;SDS011;6877;51.436;6.774;2023-07-08T07:05:43;6.45;;;4.13;;
13611;SDS011;6877;51.436;6.774;2023-07-08T07:08:09;7.63;;;3.40;;
13611;SDS011;6877;51.436;6.774;2023-07-08T07:10:37;5.75;;;4.15;;
13611;SDS011;6877;51.436;6.774;2023-07-08T07:13:08;7.90;;;4.07;;
13611;SDS011;6877;51.436;6.774;2023-07-08T07:15:36;5.70;;;4.30;;
13611;SDS011;6877;51.436;6.774;2023-07-08T07:18:02;9.63;;;4.25;;
13611;SDS011;6877;51.436;6.774;2023-07-08T07:20:35;5.10;;;3.60;;
13611;SDS011;6877;51.436;6.774;2023-07-08T07:23:03;7.25;;;4.40;;
13611;SDS011;6877;51.436;6.774;2023-07-08T07:25:30;4.97;;;3.72;;
13611;SDS011;6877;51.436;6.774;2023-07-08T07:27:56;11.95;;;3.90;;
13611;SDS011;6877;51.436;6.774;2023-07-08T07:30:24;7.05;;;4.63;;
13611;SDS011;6877;51.436;6.774;2023-07-08T07:32:51;5.47;;;4.10;;
13611;SDS011;6877;51.436;6.774;2023-07-08T07:35:22;7.15;;;4.45;;
13611;SDS011;6877;51.436;6.774;2023-07-08T07:37:49;8.95;;;4.50;;
13611;SDS011;6877;51.436;6.774;2023-07-08T07:40:15;9.98;;;4.47;;
13611;SDS011;6877;51.436;6.774;2023-07-08T07:42:47;7.18;;;4.80;;
13611;SDS011;6877;51.436;6.774;2023-07-08T07:45:13;7.00;;;4.65;;
13611;SDS011;6877;51.436;6.774;2023-07-08T07:47:40;7.45;;;4.85;;
13611;SDS011;6877;51.436;6.774;2023-07-08T07:50:12;10.00;;;5.22;;
13611;SDS011;6877;51.436;6.774;2023-07-08T07:52:39;8.60;;;4.25;;
13611;SDS011;6877;51.436;6.774;2023-07-08T07:55:07;8.13;;;5.00;;
13611;SDS011;6877;51.436;6.774;2023-07-08T07:57:39;10.77;;;5.07;;
13611;SDS011;6877;51.436;6.774;2023-07-08T08:00:08;8.75;;;5.43;;
13611;SDS011;6877;51.436;6.774;2023-07-08T08:02:35;11.18;;;5.85;;
13611;SDS011;6877;51.436;6.774;2023-07-08T08:05:02;10.07;;;5.68;;
13611;SDS011;6877;51.436;6.774;2023-07-08T08:07:28;8.68;;;5.25;;
13611;SDS011;6877;51.436;6.774;2023-07-08T08:09:55;9.45;;;5.15;;
13611;SDS011;6877;51.436;6.774;2023-07-08T08:12:26;9.63;;;5.40;;
13611;SDS011;6877;51.436;6.774;2023-07-08T08:14:53;9.20;;;5.88;;
13611;SDS011;6877;51.436;6.774;2023-07-08T08:17:19;7.20;;;5.30;;
13611;SDS011;6877;51.436;6.774;2023-07-08T08:19:46;9.00;;;5.32;;
13611;SDS011;6877;51.436;6.774;2023-07-08T08:22:12;11.18;;;6.07;;
13611;SDS011;6877;51.436;6.774;2023-07-08T08:24:44;9.10;;;5.47;;
13611;SDS011;6877;51.436;6.774;2023-07-08T08:27:11;8.95;;;5.32;;
13611;SDS011;6877;51.436;6.774;2023-07-08T08:29:37;11.23;;;5.53;;
13611;SDS011;6877;51.436;6.774;2023-07-08T08:32:04;10.50;;;5.70;;
13611;SDS011;6877;51.436;6.774;2023-07-08T08:34:35;7.53;;;4.85;;
13611;SDS011;6877;51.436;6.774;2023-07-08T08:37:07;8.65;;;5.65;;
13611;SDS011;6877;51.436;6.774;2023-07-08T08:39:33;7.70;;;5.43;;
13611;SDS011;6877;51.436;6.774;2023-07-08T08:42:07;5.32;;;4.47;;
13611;SDS011;6877;51.436;6.774;2023-07-08T08:44:51;6.85;;;5.20;;
13611;SDS011;6877;51.436;6.774;2023-07-08T08:47:29;7.30;;;5.50;;
13611;SDS011;6877;51.436;6.774;2023-07-08T08:50:34;8.30;;;5.32;;
13611;SDS011;6877;51.436;6.774;2023-07-08T08:53:14;6.97;;;5.10;;
13611;SDS011;6877;51.436;6.774;2023-07-08T08:55:43;5.55;;;4.68;;
13611;SDS011;6877;51.436;6.774;2023-07-08T08:58:28;5.97;;;4.53;;
13611;SDS011;6877;51.436;6.774;2023-07-08T09:01:04;6.63;;;4.93;;
13611;SDS011;6877;51.436;6.774;2023-07-08T09:03:41;5.40;;;4.38;;
13611;SDS011;6877;51.436;6.774;2023-07-08T09:08:54;6.20;;;4.45;;
13611;SDS011;6877;51.436;6.774;2023-07-08T09:14:26;8.55;;;4.70;;
13611;SDS011;6877;51.436;6.774;2023-07-08T09:19:33;7.97;;;4.35;;
13611;SDS011;6877;51.436;6.774;2023-07-08T09:22:05;5.38;;;4.63;;
13611;SDS011;6877;51.436;6.774;2023-07-08T09:24:42;4.63;;;3.92;;
13611;SDS011;6877;51.436;6.774;2023-07-08T09:27:10;4.30;;;3.90;;
13611;SDS011;6877;51.436;6.774;2023-07-08T09:29:37;4.63;;;3.78;;
13611;SDS011;6877;51.436;6.774;2023-07-08T09:32:19;8.27;;;4.28;;
13611;SDS011;6877;51.436;6.774;2023-07-08T09:34:52;4.32;;;3.22;;
13611;SDS011;6877;51.436;6.774;2023-07-08T09:37:34;7.63;;;4.10;;
13611;SDS011;6877;51.436;6.774;2023-07-08T09:42:49;5.75;;;3.95;;
13611;SDS011;6877;51.436;6.774;2023-07-08T09:45:19;5.22;;;3.70;;
13611;SDS011;6877;51.436;6.774;2023-07-08T09:47:54;6.80;;;3.45;;
13611;SDS011;6877;51.436;6.774;2023-07-08T09:50:23;7.40;;;3.72;;
13611;SDS011;6877;51.436;6.774;2023-07-08T09:53:02;5.82;;;4.20;;
13611;SDS011;6877;51.436;6.774;2023-07-08T09:55:36;3.75;;;3.25;;
13611;SDS011;6877;51.436;6.774;2023-07-08T09:58:02;4.35;;;3.65;;
13611;SDS011;6877;51.436;6.774;2023-07-08T10:00:32;5.85;;;3.33;;
13611;SDS011;6877;51.436;6.774;2023-07-08T10:03:03;4.97;;;4.00;;
13611;SDS011;6877;51.436;6.774;2023-07-08T10:05:38;5.07;;;3.83;;
13611;SDS011;6877;51.436;6.774;2023-07-08T10:08:22;8.02;;;3.67;;
13611;SDS011;6877;51.436;6.774;2023-07-08T10:11:10;5.78;;;3.72;;
13611;SDS011;6877;51.436;6.774;2023-07-08T10:13:49;5.15;;;3.47;;
13611;SDS011;6877;51.436;6.774;2023-07-08T10:18:53;5.22;;;4.00;;
13611;SDS011;6877;51.436;6.774;2023-07-08T10:21:26;6.22;;;3.83;;
13611;SDS011;6877;51.436;6.774;2023-07-08T10:35:48;4.97;;;3.95;;
13611;SDS011;6877;51.436;6.774;2023-07-08T10:41:35;6.35;;;4.03;;
13611;SDS011;6877;51.436;6.774;2023-07-08T10:44:23;9.02;;;3.67;;
13611;SDS011;6877;51.436;6.774;2023-07-08T10:49:58;5.05;;;3.63;;
13611;SDS011;6877;51.436;6.774;2023-07-08T10:52:37;6.00;;;4.20;;
13611;SDS011;6877;51.436;6.774;2023-07-08T10:55:17;9.65;;;3.80;;
13611;SDS011;6877;51.436;6.774;2023-07-08T10:58:02;4.35;;;3.63;;
13611;SDS011;6877;51.436;6.774;2023-07-08T11:01:04;4.88;;;3.67;;
13611;SDS011;6877;51.436;6.774;2023-07-08T11:06:50;6.30;;;3.53;;
13611;SDS011;6877;51.436;6.774;2023-07-08T11:09:21;6.20;;;3.90;;
13611;SDS011;6877;51.436;6.774;2023-07-08T11:12:25;6.82;;;3.55;;
13611;SDS011;6877;51.436;6.774;2023-07-08T11:14:56;3.60;;;3.13;;
13611;SDS011;6877;51.436;6.774;2023-07-08T11:17:31;4.40;;;3.22;;
13611;SDS011;6877;51.436;6.774;2023-07-08T11:20:23;4.30;;;3.35;;
13611;SDS011;6877;51.436;6.774;2023-07-08T11:26:05;5.70;;;3.60;;
13611;SDS011;6877;51.436;6.774;2023-07-08T11:29:00;5.65;;;3.08;;
13611;SDS011;6877;51.436;6.774;2023-07-08T11:31:31;6.82;;;4.00;;
13611;SDS011;6877;51.436;6.774;2023-07-08T11:33:59;13.57;;;3.47;;
13611;SDS011;6877;51.436;6.774;2023-07-08T11:36:27;6.32;;;4.13;;
13611;SDS011;6877;51.436;6.774;2023-07-08T11:38:55;3.95;;;3.15;;
13611;SDS011;6877;51.436;6.774;2023-07-08T11:41:24;5.53;;;4.07;;
13611;SDS011;6877;51.436;6.774;2023-07-08T11:43:58;5.90;;;3.65;;
13611;SDS011;6877;51.436;6.774;2023-07-08T11:46:32;5.78;;;3.20;;
13611;SDS011;6877;51.436;6.774;2023-07-08T11:49:02;8.32;;;3.67;;
13611;SDS011;6877;51.436;6.774;2023-07-08T11:51:37;5.95;;;3.83;;
13611;SDS011;6877;51.436;6.774;2023-07-08T11:54:14;5.38;;;3.95;;
13611;SDS011;6877;51.436;6.774;2023-07-08T11:59:22;11.73;;;4.10;;
13611;SDS011;6877;51.436;6.774;2023-07-08T12:01:52;7.43;;;3.88;;
13611;SDS011;6877;51.436;6.774;2023-07-08T12:04:30;6.72;;;4.43;;
13611;SDS011;6877;51.436;6.774;2023-07-08T12:07:09;5.88;;;3.53;;
13611;SDS011;6877;51.436;6.774;2023-07-08T12:09:44;5.22;;;4.05;;
13611;SDS011;6877;51.436;6.774;2023-07-08T12:12:24;6.15;;;3.65;;
13611;SDS011;6877;51.436;6.774;2023-07-08T12:15:21;5.97;;;3.90;;
13611;SDS011;6877;51.436;6.774;2023-07-08T12:18:19;7.95;;;3.90;;
13611;SDS011;6877;51.436;6.774;2023-07-08T12:20:59;5.72;;;3.33;;
13611;SDS011;6877;51.436;6.774;2023-07-08T12:23:29;6.90;;;3.88;;
13611;SDS011;6877;51.436;6.774;2023-07-08T12:26:01;8.30;;;4.03;;
13611;SDS011;6877;51.436;6.774;2023-07-08T12:28:36;6.35;;;3.63;;
13611;SDS011;6877;51.436;6.774;2023-07-08T12:31:09;6.15;;;3.45;;
13611;SDS011;6877;51.436;6.774;2023-07-08T12:33:47;7.55;;;3.58;;
13611;SDS011;6877;51.436;6.774;2023-07-08T12:36:21;7.28;;;4.13;;
13611;SDS011;6877;51.436;6.774;2023-07-08T12:38:59;9.13;;;3.67;;
13611;SDS011;6877;51.436;6.774;2023-07-08T12:41:33;6.50;;;3.80;;
13611;SDS011;6877;51.436;6.774;2023-07-08T12:44:01;10.65;;;4.00;;
13611;SDS011;6877;51.436;6.774;2023-07-08T12:46:28;6.18;;;3.63;;
13611;SDS011;6877;51.436;6.774;2023-07-08T12:49:00;9.68;;;3.65;;
13611;SDS011;6877;51.436;6.774;2023-07-08T12:51:27;7.13;;;3.92;;
13611;SDS011;6877;51.436;6.774;2023-07-08T12:53:53;10.65;;;3.83;;
13611;SDS011;6877;51.436;6.774;2023-07-08T12:56:25;6.53;;;4.00;;
13611;SDS011;6877;51.436;6.774;2023-07-08T12:58:53;7.28;;;3.38;;
13611;SDS011;6877;51.436;6.774;2023-07-08T13:01:24;6.55;;;3.90;;
13611;SDS011;6877;51.436;6.774;2023-07-08T13:03:53;5.97;;;3.38;;
13611;SDS011;6877;51.436;6.774;2023-07-08T13:06:24;5.32;;;3.53;;
13611;SDS011;6877;51.436;6.774;2023-07-08T13:11:51;8.02;;;4.28;;
13611;SDS011;6877;51.436;6.774;2023-07-08T13:14:24;8.27;;;4.07;;
13611;SDS011;6877;51.436;6.774;2023-07-08T13:16:51;8.13;;;4.00;;
13611;SDS011;6877;51.436;6.774;2023-07-08T13:19:18;5.60;;;3.70;;
13611;SDS011;6877;51.436;6.774;2023-07-08T13:21:46;6.40;;;3.72;;
13611;SDS011;6877;51.436;6.774;2023-07-08T13:24:13;6.70;;;3.95;;
13611;SDS011;6877;51.436;6.774;2023-07-08T13:26:39;7.40;;;3.78;;
13611;SDS011;6877;51.436;6.774;2023-07-08T13:29:16;4.57;;;3.15;;
13611;SDS011;6877;51.436;6.774;2023-07-08T13:31:48;5.50;;;3.60;;
13611;SDS011;6877;51.436;6.774;2023-07-08T13:34:19;5.60;;;3.70;;
13611;SDS011;6877;51.436;6.774;2023-07-08T13:36:50;7.65;;;3.75;;
13611;SDS011;6877;51.436;6.774;2023-07-08T13:39:22;7.00;;;3.70;;
13611;SDS011;6877;51.436;6.774;2023-07-08T13:41:52;11.35;;;4.05;;
13611;SDS011;6877;51.436;6.774;2023-07-08T13:44:19;6.80;;;4.03;;
13611;SDS011;6877;51.436;6.774;2023-07-08T13:46:50;6.70;;;3.45;;
13611;SDS011;6877;51.436;6.774;2023-07-08T13:49:26;11.18;;;3.75;;
13611;SDS011;6877;51.436;6.774;2023-07-08T13:52:07;5.75;;;3.75;;
13611;SDS011;6877;51.436;6.774;2023-07-08T13:54:44;6.55;;;4.25;;
13611;SDS011;6877;51.436;6.774;2023-07-08T13:57:22;5.68;;;3.80;;
13611;SDS011;6877;51.436;6.774;2023-07-08T13:59:58;8.65;;;4.60;;
13611;SDS011;6877;51.436;6.774;2023-07-08T14:02:30;8.82;;;4.78;;
13611;SDS011;6877;51.436;6.774;2023-07-08T14:05:02;6.38;;;4.30;;
13611;SDS011;6877;51.436;6.774;2023-07-08T14:07:31;4.75;;;3.40;;
13611;SDS011;6877;51.436;6.774;2023-07-08T14:10:13;15.23;;;6.43;;
13611;SDS011;6877;51.436;6.774;2023-07-08T14:12:40;7.38;;;3.72;;
13611;SDS011;6877;51.436;6.774;2023-07-08T14:15:12;6.03;;;4.32;;
13611;SDS011;6877;51.436;6.774;2023-07-08T14:17:43;7.90;;;5.30;;
13611;SDS011;6877;51.436;6.774;2023-07-08T14:20:15;13.50;;;4.78;;
13611;SDS011;6877;51.436;6.774;2023-07-08T14:22:43;8.63;;;3.63;;
13611;SDS011;6877;51.436;6.774;2023-07-08T14:25:10;7.30;;;4.10;;
13611;SDS011;6877;51.436;6.774;2023-07-08T14:27:42;9.23;;;3.95;;
13611;SDS011;6877;51.436;6.774;2023-07-08T14:30:09;7.45;;;4.35;;
13611;SDS011;6877;51.436;6.774;2023-07-08T14:32:41;9.00;;;4.45;;
13611;SDS011;6877;51.436;6.774;2023-07-08T14:37:41;7.55;;;4.10;;
13611;SDS011;6877;51.436;6.774;2023-07-08T14:40:41;8.75;;;3.95;;
13611;SDS011;6877;51.436;6.774;2023-07-08T14:43:14;7.15;;;4.30;;
13611;SDS011;6877;51.436;6.774;2023-07-08T14:45:50;6.25;;;4.03;;
13611;SDS011;6877;51.436;6.774;2023-07-08T14:48:19;7.32;;;4.63;;
13611;SDS011;6877;51.436;6.774;2023-07-08T14:50:50;6.95;;;3.20;;
13611;SDS011;6877;51.436;6.774;2023-07-08T14:53:17;5.65;;;3.53;;
13611;SDS011;6877;51.436;6.774;2023-07-08T14:55:47;9.80;;;3.92;;
13611;SDS011;6877;51.436;6.774;2023-07-08T14:58:22;9.52;;;4.32;;
13611;SDS011;6877;51.436;6.774;2023-07-08T15:00:54;8.52;;;4.13;;
13611;SDS011;6877;51.436;6.774;2023-07-08T15:03:27;5.55;;;3.60;;
13611;SDS011;6877;51.436;6.774;2023-07-08T15:05:58;5.72;;;3.80;;
13611;SDS011;6877;51.436;6.774;2023-07-08T15:08:25;8.18;;;3.67;;
13611;SDS011;6877;51.436;6.774;2023-07-08T15:10:51;5.55;;;3.67;;
13611;SDS011;6877;51.436;6.774;2023-07-08T15:13:19;8.35;;;4.15;;
13611;SDS011;6877;51.436;6.774;2023-07-08T15:15:55;7.55;;;4.43;;
13611;SDS011;6877;51.436;6.774;2023-07-08T15:18:27;6.15;;;3.55;;
13611;SDS011;6877;51.436;6.774;2023-07-08T15:20:58;10.55;;;3.70;;
13611;SDS011;6877;51.436;6.774;2023-07-08T15:23:24;8.18;;;4.45;;
13611;SDS011;6877;51.436;6.774;2023-07-08T15:25:51;6.60;;;3.47;;
13611;SDS011;6877;51.436;6.774;2023-07-08T15:28:39;7.68;;;4.20;;
13611;SDS011;6877;51.436;6.774;2023-07-08T15:31:14;5.25;;;4.05;;
13611;SDS011;6877;51.436;6.774;2023-07-08T15:33:43;8.70;;;3.80;;
13611;SDS011;6877;51.436;6.774;2023-07-08T15:36:15;9.60;;;3.95;;
13611;SDS011;6877;51.436;6.774;2023-07-08T15:38:41;6.65;;;3.88;;
13611;SDS011;6877;51.436;6.774;2023-07-08T15:43:53;5.72;;;3.85;;
13611;SDS011;6877;51.436;6.774;2023-07-08T15:46:31;9.43;;;4.00;;
13611;SDS011;6877;51.436;6.774;2023-07-08T15:49:00;5.65;;;3.63;;
13611;SDS011;6877;51.436;6.774;2023-07-08T15:51:32;8.68;;;4.53;;
13611;SDS011;6877;51.436;6.774;2023-07-08T15:53:59;8.13;;;4.60;;
13611;SDS011;6877;51.436;6.774;2023-07-08T15:56:30;6.13;;;3.83;;
13611;SDS011;6877;51.436;6.774;2023-07-08T15:58:57;15.05;;;4.68;;
13611;SDS011;6877;51.436;6.774;2023-07-08T16:01:23;6.75;;;4.00;;
13611;SDS011;6877;51.436;6.774;2023-07-08T16:03:55;5.65;;;3.88;;
13611;SDS011;6877;51.436;6.774;2023-07-08T16:06:27;7.95;;;4.20;;
13611;SDS011;6877;51.436;6.774;2023-07-08T16:08:53;7.13;;;3.53;;
13611;SDS011;6877;51.436;6.774;2023-07-08T16:11:27;5.88;;;3.70;;
13611;SDS011;6877;51.436;6.774;2023-07-08T16:13:56;5.30;;;3.55;;
13611;SDS011;6877;51.436;6.774;2023-07-08T16:16:23;6.95;;;3.88;;
13611;SDS011;6877;51.436;6.774;2023-07-08T16:18:56;7.32;;;3.67;;
13611;SDS011;6877;51.436;6.774;2023-07-08T16:21:27;6.20;;;3.97;;
13611;SDS011;6877;51.436;6.774;2023-07-08T16:23:54;9.07;;;4.10;;
13611;SDS011;6877;51.436;6.774;2023-07-08T16:26:20;7.03;;;4.05;;